Time;durP1;ratioP1;P1;durP2;ratioP2;P2;SDS_P1;SDS_P2;PMS_P1;PMS_P2;Temp;Humidity;BMP_temperature;BMP_pressure;BME280_temperature;BME280_humidity;BME280_pressure;Samples;Min_cycle;Max_cycle;Signal;HPM_P1;HPM_P2
2023/02/13 00:00:24;;;;;;;26.80;17.60;;;;;;;3.12;100.00;101284.70;451035;1249;141531;-67
2023/02/13 00:10:31;;;;;;;27.00;17.50;;;;;;;3.11;100.00;101284.00;450373;1249;142932;-69
2023/02/13 00:20:37;;;;;;;27.40;17.40;;;;;;;3.08;100.00;101274.86;451005;1249;142037;-67
2023/02/13 00:30:43;;;;;;;28.10;19.40;;;;;;;3.03;100.00;101276.79;450477;1249;142158;-67
2023/02/13 00:40:49;;;;;;;29.60;17.60;;;;;;;2.98;100.00;101263.33;451212;1249;142265;-67
2023/02/13 00:50:55;;;;;;;25.60;17.20;;;;;;;2.94;100.00;101243.09;451308;1249;142253;-66
2023/02/13 01:01:02;;;;;;;25.80;16.90;;;;;;;2.94;100.00;101239.80;450528;1249;142557;-67
2023/02/13 01:11:08;;;;;;;26.30;17.60;;;;;;;2.97;100.00;101235.30;444960;1250;144599;-66
2023/02/13 01:21:20;;;;;;;32.30;19.10;;;;;;;2.98;100.00;101232.36;448789;1249;141822;-66
2023/02/13 01:31:27;;;;;;;27.30;16.80;;;;;;;3.00;100.00;101224.55;450355;1250;143478;-67
2023/02/13 01:41:31;;;;;;;;;;;;;;;3.02;100.00;101220.56;442334;1250;141456;-67
2023/02/13 01:51:39;;;;;;;26.90;15.80;;;;;;;3.01;100.00;101211.91;450757;1249;129779;-67
2023/02/13 02:01:45;;;;;;;25.30;15.90;;;;;;;3.02;100.00;101214.33;451152;1249;141888;-68
2023/02/13 02:11:56;;;;;;;26.00;16.50;;;;;;;3.00;100.00;101213.30;449912;1249;143228;-66
2023/02/13 02:22:46;;;;;;;26.60;17.80;;;;;;;2.94;100.00;101209.38;450439;1250;142402;-67
2023/02/13 02:33:03;;;;;;;29.70;18.00;;;;;;;2.97;100.00;101222.15;450632;1249;142139;-67
2023/02/13 02:43:21;;;;;;;28.60;17.40;;;;;;;2.99;100.00;101222.83;450477;1249;142129;-67
2023/02/13 02:53:37;;;;;;;29.70;19.20;;;;;;;2.98;100.00;101221.63;451177;1250;141433;-67
2023/02/13 03:14:11;;;;;;;26.40;18.90;;;;;;;2.96;100.00;101233.41;450554;1249;142416;-67
2023/02/13 03:24:28;;;;;;;26.70;17.90;;;;;;;2.93;100.00;101234.13;449021;1249;142019;-67
2023/02/13 04:06:04;;;;;;;28.10;15.80;;;;;;;2.87;100.00;101240.02;447468;1249;142648;-67
2023/02/13 04:16:15;;;;;;;22.50;15.20;;;;;;;2.82;100.00;101234.34;450365;1249;142412;-67
2023/02/13 04:26:24;;;;;;;22.20;16.10;;;;;;;2.76;100.00;101230.41;451250;1250;142338;-66
2023/02/13 04:36:30;;;;;;;32.90;17.50;;;;;;;2.57;100.00;101230.66;451178;1250;143184;-66
2023/02/13 04:46:36;;;;;;;21.70;13.70;;;;;;;2.40;100.00;101225.04;450725;1249;142841;-66
2023/02/13 04:56:42;;;;;;;23.10;14.90;;;;;;;2.34;100.00;101241.98;451057;1250;143816;-66
2023/02/13 05:06:48;;;;;;;20.00;13.00;;;;;;;2.33;100.00;101245.96;450331;1249;142075;-66
2023/02/13 05:16:54;;;;;;;16.10;11.40;;;;;;;2.38;100.00;101245.27;451008;1249;143058;-68
2023/02/13 05:27:00;;;;;;;19.50;11.60;;;;;;;2.36;100.00;101244.58;444852;1252;142134;-65
2023/02/13 05:37:06;;;;;;;13.10;10.00;;;;;;;2.34;100.00;101246.65;450287;1249;142569;-68
2023/02/13 05:47:12;;;;;;;14.50;10.40;;;;;;;2.34;100.00;101242.16;442624;1249;142125;-67
2023/02/13 05:57:18;;;;;;;15.60;11.40;;;;;;;2.34;100.00;101245.44;450857;1250;141740;-67
2023/02/13 06:07:23;;;;;;;16.00;9.70;;;;;;;2.37;100.00;101245.09;449915;1249;143427;-67
2023/02/13 06:17:29;;;;;;;15.60;9.60;;;;;;;2.37;100.00;101246.13;435044;1253;142818;-67
2023/02/13 06:27:35;;;;;;;12.30;9.00;;;;;;;2.40;100.00;101251.65;445915;1251;142180;-67
2023/02/13 06:37:42;;;;;;;13.20;8.50;;;;;;;2.42;100.00;101243.00;441868;1249;141788;-65
2023/02/13 06:47:50;;;;;;;11.30;7.30;;;;;;;2.52;100.00;101250.05;451094;1250;142933;-67
2023/02/13 06:57:56;;;;;;;15.80;8.00;;;;;;;2.75;100.00;101256.86;450151;1249;142242;-66
2023/02/13 07:08:02;;;;;;;12.30;10.00;;;;;;;2.91;100.00;101249.34;447158;1250;141762;-66
2023/02/13 07:18:08;;;;;;;15.00;11.30;;;;;;;3.07;100.00;101247.17;450984;1250;142227;-66
2023/02/13 07:28:14;;;;;;;19.60;13.80;;;;;;;3.22;100.00;101252.27;450375;1250;142103;-66
2023/02/13 07:38:20;;;;;;;20.30;14.30;;;;;;;3.28;100.00;101240.29;438368;1249;142732;-66
2023/02/13 07:48:27;;;;;;;22.70;14.50;;;;;;;3.28;100.00;101250.48;444474;1250;142305;-66
2023/02/13 07:58:33;;;;;;;19.20;13.00;;;;;;;3.36;100.00;101254.77;450452;1250;208418;-67
2023/02/13 08:08:38;;;;;;;21.60;17.20;;;;;;;3.48;100.00;101255.89;446483;1251;142364;-66
2023/02/13 08:18:44;;;;;;;13.40;9.70;;;;;;;3.61;100.00;101251.80;438840;1253;143309;-67
2023/02/13 08:28:50;;;;;;;15.70;12.60;;;;;;;3.69;100.00;101247.40;443501;1251;142345;-67
2023/02/13 08:38:56;;;;;;;14.20;10.80;;;;;;;3.84;100.00;101240.69;451034;1251;142369;-67
2023/02/13 08:49:02;;;;;;;12.80;10.90;;;;;;;3.92;100.00;101242.69;450338;1250;143070;-67
2023/02/13 08:59:08;;;;;;;13.50;11.40;;;;;;;4.03;100.00;101243.44;450918;1250;143645;-67
2023/02/13 09:09:14;;;;;;;14.40;10.60;;;;;;;4.20;100.00;101239.10;450972;1251;142063;-66
2023/02/13 09:19:21;;;;;;;10.90;9.20;;;;;;;4.38;100.00;101238.23;450267;1250;142203;-66
2023/02/13 09:29:30;;;;;;;11.40;9.50;;;;;;;4.25;100.00;101246.16;451128;1249;142378;-67
2023/02/13 09:39:35;;;;;;;11.10;9.70;;;;;;;4.50;100.00;101236.85;450276;1250;142795;-67
2023/02/13 09:49:45;;;;;;;9.80;6.20;;;;;;;7.30;100.00;101227.13;450920;1251;143065;-66
2023/02/13 10:00:02;;;;;;;7.20;5.60;;;;;;;8.04;100.00;101211.33;450956;1251;142696;-66
2023/02/13 10:10:18;;;;;;;5.00;4.60;;;;;;;7.35;100.00;101209.26;442823;1251;142472;-67
2023/02/13 10:20:30;;;;;;;6.70;5.50;;;;;;;6.52;100.00;101217.06;450975;1253;143181;-67
2023/02/13 10:30:43;;;;;;;5.20;4.40;;;;;;;6.28;100.00;101215.98;450269;1251;141700;-67
2023/02/13 10:41:15;;;;;;;4.90;4.10;;;;;;;6.40;100.00;101204.61;450882;1251;142825;-67
2023/02/13 10:51:32;;;;;;;6.80;4.60;;;;;;;6.82;99.72;101194.16;451104;1249;141509;-67
2023/02/13 11:01:45;;;;;;;5.20;4.60;;;;;;;6.44;98.81;101207.31;450587;1251;200335;-67
2023/02/13 11:11:51;;;;;;;4.90;4.20;;;;;;;5.91;98.19;101206.58;450971;1250;142049;-67
2023/02/13 11:22:01;;;;;;;4.40;3.60;;;;;;;5.96;99.03;101204.93;450235;1250;141693;-67
2023/02/13 11:32:22;;;;;;;3.60;3.30;;;;;;;5.81;98.37;101200.32;451044;1250;142473;-66
2023/02/13 11:42:34;;;;;;;6.70;4.60;;;;;;;5.49;98.45;101189.06;451014;1251;145139;-66
2023/02/13 11:52:41;;;;;;;4.40;3.60;;;;;;;5.30;98.41;101187.48;450598;1250;198583;-66
2023/02/13 12:02:50;;;;;;;3.80;3.20;;;;;;;5.38;98.46;101188.38;451047;1250;141988;-66
2023/02/13 12:12:57;;;;;;;4.60;4.00;;;;;;;5.14;97.52;101171.76;439275;1251;142031;-65
2023/02/13 12:23:07;;;;;;;4.30;3.50;;;;;;;5.00;97.87;101164.69;450946;1250;142153;-66
2023/02/13 12:33:26;;;;;;;4.70;3.40;;;;;;;5.15;97.69;101153.70;451072;1251;142954;-67
2023/02/13 12:44:09;;;;;;;4.90;3.40;;;;;;;5.38;97.73;101150.36;450359;1250;144001;-67
2023/02/13 12:54:38;;;;;;;6.80;3.90;;;;;;;5.36;96.12;101148.82;442993;1250;142131;-69
2023/02/13 13:04:58;;;;;;;5.20;3.50;;;;;;;5.16;95.42;101133.38;450701;1251;207569;-69
2023/02/13 13:15:10;;;;;;;2.90;2.60;;;;;;;5.19;95.68;101131.41;449221;1249;141755;-68
2023/02/13 13:25:25;;;;;;;4.20;3.10;;;;;;;5.34;95.44;101123.34;447475;1251;141924;-71
2023/02/13 13:35:32;;;;;;;4.20;3.50;;;;;;;5.16;95.16;101105.58;446390;1251;141293;-69
2023/02/13 13:45:45;;;;;;;4.30;3.70;;;;;;;5.10;95.50;101103.60;438937;1251;162344;-66
2023/02/13 13:56:10;;;;;;;8.10;5.60;;;;;;;5.15;96.04;101104.74;451127;1251;141796;-68
2023/02/13 14:06:18;;;;;;;10.10;6.30;;;;;;;5.28;95.81;101099.83;450380;1250;141997;-69
2023/02/13 14:16:39;;;;;;;9.10;5.30;;;;;;;5.26;95.66;101087.88;445260;1249;141838;-69
2023/02/13 14:26:52;;;;;;;6.90;5.90;;;;;;;5.19;95.39;101083.65;443423;1250;142187;-66
2023/02/13 14:37:26;;;;;;;8.90;6.40;;;;;;;5.04;95.29;101087.04;450419;1249;141701;-67
2023/02/13 14:47:38;;;;;;;7.40;6.00;;;;;;;4.87;95.37;101083.33;451207;1250;142132;-66
2023/02/13 14:57:49;;;;;;;10.40;7.00;;;;;;;4.79;95.64;101082.60;444217;1250;141526;-67
2023/02/13 15:08:12;;;;;;;10.00;6.40;;;;;;;4.67;95.82;101097.86;447862;1250;142990;-65
2023/02/13 15:18:22;;;;;;;7.20;5.60;;;;;;;4.46;96.19;101086.21;434085;1253;141570;-66
2023/02/13 15:28:29;;;;;;;9.30;6.80;;;;;;;4.30;96.39;101068.23;433553;1253;141866;-67
2023/02/13 15:38:36;;;;;;;10.30;6.30;;;;;;;4.15;96.48;101064.79;434248;1251;142095;-66
2023/02/13 15:48:41;;;;;;;;;;;;;;;4.03;96.79;101077.45;450348;1249;141825;-67
2023/02/13 15:58:48;;;;;;;10.70;7.00;;;;;;;3.91;97.01;101072.39;436264;1249;128133;-69
2023/02/13 16:08:53;;;;;;;;;;;;;;;3.81;97.16;101071.64;450544;1249;141861;-65
2023/02/13 16:18:59;;;;;;;9.00;7.20;;;;;;;3.73;97.47;101056.67;450667;1249;128906;-66
2023/02/13 16:29:11;;;;;;;10.90;8.30;;;;;;;3.66;97.38;101050.18;451088;1249;142904;-67
2023/02/13 16:39:21;;;;;;;10.20;8.10;;;;;;;3.57;97.20;101046.63;446656;1250;142426;-67
2023/02/13 16:49:31;;;;;;;13.10;8.70;;;;;;;3.53;97.58;101035.60;448978;1250;145016;-66
2023/02/13 16:59:51;;;;;;;12.10;7.20;;;;;;;3.47;97.71;101071.17;443944;1250;141953;-66
2023/02/13 17:10:02;;;;;;;11.60;9.50;;;;;;;3.44;97.86;101076.05;450274;1249;142302;-65
2023/02/13 17:20:14;;;;;;;10.60;7.50;;;;;;;3.42;98.00;101078.15;451057;1250;141162;-66
2023/02/13 17:30:23;;;;;;;12.50;7.50;;;;;;;3.42;97.77;101069.67;451027;1250;142877;-65
2023/02/13 17:40:30;;;;;;;10.40;7.50;;;;;;;3.41;97.73;101064.83;440582;1250;141520;-67
2023/02/13 17:50:37;;;;;;;8.90;6.90;;;;;;;3.37;97.54;101066.60;439236;1249;141717;-66
2023/02/13 18:00:43;;;;;;;9.10;7.00;;;;;;;3.32;97.54;101073.39;443553;1250;142028;-67
2023/02/13 18:10:49;;;;;;;9.50;6.80;;;;;;;3.29;97.33;101078.79;442510;1248;142815;-65
2023/02/13 18:20:57;;;;;;;8.70;6.30;;;;;;;3.28;97.26;101066.33;438978;1249;142971;-66
2023/02/13 18:31:04;;;;;;;7.90;5.30;;;;;;;3.24;97.09;101066.89;449407;1250;141436;-65
2023/02/13 18:41:10;;;;;;;7.20;5.50;;;;;;;3.25;97.00;101083.16;448216;1249;142430;-65
2023/02/13 18:51:16;;;;;;;7.40;5.50;;;;;;;3.27;96.82;101079.15;446487;1249;141957;-65
2023/02/13 19:01:23;;;;;;;7.50;6.70;;;;;;;3.28;96.43;101104.41;444804;1250;143387;-66
2023/02/13 19:11:33;;;;;;;7.90;6.40;;;;;;;3.25;96.35;101119.33;450761;1248;141853;-66
2023/02/13 19:21:39;;;;;;;13.30;6.40;;;;;;;3.24;96.22;101128.69;442569;1250;141485;-66
2023/02/13 19:31:45;;;;;;;8.40;6.50;;;;;;;3.23;96.11;101145.83;435850;1250;143738;-67
2023/02/13 19:41:52;;;;;;;11.10;6.90;;;;;;;3.22;96.03;101146.87;450986;1249;142755;-65
2023/02/13 19:51:57;;;;;;;10.50;7.20;;;;;;;3.20;96.24;101145.16;450255;1249;141839;-66
2023/02/13 20:02:04;;;;;;;10.60;7.60;;;;;;;3.21;96.09;101149.30;451015;1249;142794;-66
2023/02/13 20:12:10;;;;;;;8.80;6.40;;;;;;;3.21;95.88;101150.86;436693;1250;142152;-65
2023/02/13 20:22:16;;;;;;;9.00;7.00;;;;;;;3.17;95.85;101154.35;439511;1250;141982;-66
2023/02/13 20:32:23;;;;;;;10.00;7.10;;;;;;;3.14;95.83;101160.42;450928;1250;142215;-67
2023/02/13 20:42:31;;;;;;;10.40;5.90;;;;;;;3.14;95.72;101163.39;445424;1250;141838;-66
2023/02/13 20:52:38;;;;;;;9.80;6.50;;;;;;;3.13;95.57;101166.66;450638;1250;213267;-67
2023/02/13 21:02:44;;;;;;;9.50;6.70;;;;;;;3.14;95.43;101175.15;442722;1250;141564;-65
2023/02/13 21:12:50;;;;;;;9.50;7.10;;;;;;;3.13;95.51;101177.58;433337;1251;141669;-66
2023/02/13 21:22:58;;;;;;;12.90;7.90;;;;;;;3.10;95.87;101181.05;451006;1250;144517;-68
2023/02/13 21:33:04;;;;;;;10.00;7.80;;;;;;;3.10;95.69;101174.48;451099;1249;142418;-67
2023/02/13 21:43:10;;;;;;;10.60;7.90;;;;;;;3.09;95.87;101175.36;450164;1250;142049;-67
2023/02/13 21:53:16;;;;;;;10.40;7.30;;;;;;;3.08;95.84;101180.89;450997;1249;144945;-67
2023/02/13 22:03:22;;;;;;;11.10;7.50;;;;;;;3.07;95.88;101175.20;450961;1250;141741;-66
2023/02/13 22:13:28;;;;;;;11.00;7.20;;;;;;;3.06;95.85;101162.40;440653;1250;142454;-66
2023/02/13 22:23:35;;;;;;;10.60;7.80;;;;;;;3.05;96.21;101154.96;442636;1248;142378;-66
2023/02/13 22:33:40;;;;;;;;;;;;;;;3.04;96.28;101163.11;450310;1250;141950;-66
2023/02/13 22:43:47;;;;;;;11.00;8.20;;;;;;;3.01;96.23;101159.48;451247;1250;128536;-66
2023/02/13 22:53:56;;;;;;;11.10;7.30;;;;;;;3.01;96.38;101152.41;451110;1249;142241;-66
2023/02/13 23:04:02;;;;;;;11.50;8.60;;;;;;;3.01;96.55;101154.30;437880;1251;144397;-65
2023/02/13 23:14:09;;;;;;;11.10;8.20;;;;;;;2.98;96.52;101149.14;451076;1249;142523;-66
2023/02/13 23:24:14;;;;;;;9.80;7.60;;;;;;;2.94;96.58;101151.77;451001;1249;141439;-66
2023/02/13 23:34:21;;;;;;;10.40;7.10;;;;;;;2.92;96.48;101149.02;445349;1252;141781;-65
2023/02/13 23:44:27;;;;;;;9.20;6.70;;;;;;;2.88;96.62;101157.00;433833;1253;141758;-66
2023/02/13 23:54:33;;;;;;;11.30;6.60;;;;;;;2.82;96.44;101146.48;433974;1251;141656;-66
